Time;durP1;ratioP1;P1;durP2;ratioP2;P2;SDS_P1;SDS_P2;PMS_P1;PMS_P2;Temp;Humidity;BMP_temperature;BMP_pressure;BME280_temperature;BME280_humidity;BME280_pressure;Samples;Min_cycle;Max_cycle;Signal;HPM_P1;HPM_P2
2023/11/16 00:02:34;;;;;;;4.25;3.10;;;;;;;2.95;100.00;97963.88;1225129;75;2933489;-67
2023/11/16 00:05:08;;;;;;;4.00;2.70;;;;;;;2.94;100.00;97967.00;1226009;75;2922612;-68
2023/11/16 00:07:41;;;;;;;3.50;2.60;;;;;;;2.92;100.00;97964.72;1225374;75;2922265;-68
2023/11/16 00:10:15;;;;;;;4.05;2.95;;;;;;;2.80;100.00;97964.56;1225629;75;2913901;-68
2023/11/16 00:12:48;;;;;;;5.80;3.55;;;;;;;2.96;100.00;97965.41;1226147;75;2934784;-68
2023/11/16 00:15:20;;;;;;;5.80;3.55;;;;;;;2.90;100.00;97961.66;1225667;75;2917044;-67
2023/11/16 00:17:56;;;;;;;3.90;2.65;;;;;;;2.89;100.00;97964.78;1225365;75;2914215;-64
2023/11/16 00:20:29;;;;;;;4.15;3.05;;;;;;;2.72;100.00;97958.53;1224472;75;2928315;-68
2023/11/16 00:23:02;;;;;;;7.45;5.00;;;;;;;2.43;100.00;97953.66;1225688;75;2915497;-72
2023/11/16 00:25:35;;;;;;;6.65;4.30;;;;;;;2.55;100.00;97949.59;1225656;75;2917085;-65
2023/11/16 00:28:08;;;;;;;6.05;4.10;;;;;;;2.48;100.00;97950.47;1226501;75;2915642;-65
2023/11/16 00:30:41;;;;;;;5.75;3.75;;;;;;;2.64;100.00;97957.91;1225300;75;2920885;-69
2023/11/16 00:33:18;;;;;;;7.10;4.30;;;;;;;2.56;100.00;97953.81;1225816;75;2914504;-69
2023/11/16 00:35:51;;;;;;;5.65;3.55;;;;;;;2.50;100.00;97956.25;1225253;75;2924762;-68
2023/11/16 00:38:25;;;;;;;4.75;3.40;;;;;;;2.75;100.00;97961.16;1225878;75;2919529;-67
2023/11/16 00:40:58;;;;;;;3.85;2.75;;;;;;;2.85;100.00;97961.38;1225216;75;2920313;-68
2023/11/16 00:43:34;;;;;;;3.40;2.50;;;;;;;2.84;100.00;97966.03;1225744;75;2923379;-71
2023/11/16 00:46:11;;;;;;;3.55;2.45;;;;;;;2.89;100.00;97970.94;1225356;75;2914600;-65
2023/11/16 00:48:47;;;;;;;8.95;4.75;;;;;;;2.42;100.00;97971.03;1224187;75;2913353;-65
2023/11/16 00:51:19;;;;;;;6.10;4.75;;;;;;;2.73;100.00;97973.56;1225098;75;2921198;-68
2023/11/16 00:53:52;;;;;;;5.20;3.50;;;;;;;2.73;100.00;97977.03;1224585;75;2924914;-64
2023/11/16 00:56:24;;;;;;;3.75;2.95;;;;;;;2.73;100.00;97978.97;1225431;75;2917258;-67
2023/11/16 00:58:57;;;;;;;4.35;2.70;;;;;;;2.73;100.00;97981.69;1225595;75;2917506;-67
2023/11/16 01:01:30;;;;;;;6.80;4.00;;;;;;;2.58;100.00;97986.59;1225038;75;2922028;-68
2023/11/16 01:04:09;;;;;;;4.75;3.60;;;;;;;2.51;100.00;97982.06;1224986;75;2921748;-68
2023/11/16 01:06:42;;;;;;;4.00;3.00;;;;;;;2.74;100.00;97989.38;1224726;75;2918772;-68
2023/11/16 01:09:16;;;;;;;4.50;3.25;;;;;;;2.48;100.00;97974.03;1225491;67;2923709;-66
2023/11/16 01:11:49;;;;;;;3.65;2.85;;;;;;;2.60;100.00;97989.66;1224432;75;2935674;-67
2023/11/16 01:14:23;;;;;;;3.55;2.45;;;;;;;2.62;100.00;97987.31;1225181;75;2921729;-68
2023/11/16 01:17:01;;;;;;;2.95;2.40;;;;;;;2.75;100.00;97990.16;1226053;75;2917414;-63
2023/11/16 01:19:43;;;;;;;1.60;1.40;;;;;;;2.69;100.00;97989.84;1225904;75;2916734;-67
2023/11/16 01:22:21;;;;;;;1.60;1.40;;;;;;;2.76;100.00;97994.38;1225626;75;2918990;-67
2023/11/16 01:24:53;;;;;;;2.40;1.85;;;;;;;2.77;100.00;97993.22;1224864;75;2917671;-67
2023/11/16 01:27:30;;;;;;;1.85;1.60;;;;;;;2.72;100.00;97975.53;1225621;75;2921600;-70
2023/11/16 01:30:03;;;;;;;1.65;1.40;;;;;;;2.76;100.00;97981.59;1225423;75;2922676;-70
2023/11/16 01:32:36;;;;;;;3.30;2.35;;;;;;;2.71;100.00;97976.69;1225675;75;2919635;-67
2023/11/16 01:35:12;;;;;;;3.15;2.45;;;;;;;2.74;100.00;97985.91;1224572;75;2922294;-69
2023/11/16 01:37:45;;;;;;;4.00;2.55;;;;;;;2.68;100.00;97968.66;1224838;75;2919192;-68
2023/11/16 01:40:18;;;;;;;2.25;1.70;;;;;;;2.95;100.00;97971.22;1224730;75;2920705;-67
2023/11/16 01:42:53;;;;;;;2.25;1.65;;;;;;;2.89;100.00;97970.94;1225068;75;2924332;-70
2023/11/16 01:45:33;;;;;;;2.05;1.70;;;;;;;2.88;100.00;97965.94;1225107;75;2914586;-68
2023/11/16 01:48:08;;;;;;;1.65;1.30;;;;;;;2.90;100.00;97971.72;1224473;75;2917223;-67
2023/11/16 01:50:44;;;;;;;1.20;1.10;;;;;;;2.88;100.00;97964.00;1224147;75;2925295;-68
2023/11/16 01:53:17;;;;;;;2.00;1.40;;;;;;;2.84;100.00;97962.53;1224645;75;2927714;-65
2023/11/16 01:55:51;;;;;;;2.65;1.70;;;;;;;2.88;100.00;97980.22;1224419;75;2920170;-68
2023/11/16 01:58:24;;;;;;;3.30;2.00;;;;;;;2.62;100.00;97976.50;1224235;75;2922736;-68
2023/11/16 02:00:57;;;;;;;4.60;2.40;;;;;;;2.92;100.00;97980.94;1224643;75;2918900;-69
2023/11/16 02:03:31;;;;;;;2.15;1.80;;;;;;;2.74;100.00;97978.56;1224412;75;2919428;-67
2023/11/16 02:06:07;;;;;;;2.90;1.95;;;;;;;2.65;100.00;97972.19;1223949;75;2979155;-64
2023/11/16 02:08:40;;;;;;;2.70;1.95;;;;;;;2.62;100.00;97979.19;1224572;75;2916742;-66
2023/11/16 02:11:13;;;;;;;3.15;2.30;;;;;;;2.74;100.00;97977.78;1224335;75;2914670;-68
2023/11/16 02:13:45;;;;;;;3.10;2.20;;;;;;;2.88;100.00;97982.19;1224758;75;2922531;-67
2023/11/16 02:16:18;;;;;;;3.40;2.30;;;;;;;2.81;100.00;97974.19;1224653;75;2893515;-67
2023/11/16 02:18:52;;;;;;;2.65;2.05;;;;;;;2.84;100.00;97976.84;1225330;75;2926929;-69
2023/11/16 02:21:27;;;;;;;2.70;1.85;;;;;;;2.92;100.00;97982.88;1225626;75;2915755;-68
2023/11/16 02:24:04;;;;;;;1.85;1.65;;;;;;;3.07;100.00;97978.69;1224592;75;2925936;-66
2023/11/16 02:26:37;;;;;;;2.30;1.70;;;;;;;2.94;100.00;97980.53;1225000;75;2918327;-68
2023/11/16 02:29:10;;;;;;;3.05;1.80;;;;;;;2.84;100.00;97976.84;1225528;75;2920117;-65
2023/11/16 02:31:43;;;;;;;1.90;1.50;;;;;;;3.01;100.00;97977.69;1226155;75;2920717;-67
2023/11/16 02:34:15;;;;;;;2.20;1.65;;;;;;;3.04;100.00;97976.84;1225348;75;2915792;-68
2023/11/16 02:36:48;;;;;;;3.00;1.80;;;;;;;2.64;100.00;97973.34;1225850;75;2922066;-66
2023/11/16 02:39:23;;;;;;;2.90;1.60;;;;;;;2.75;100.00;97973.94;1225111;75;2918526;-68
2023/11/16 02:41:59;;;;;;;2.15;1.40;;;;;;;2.70;100.00;97980.56;1224984;75;2920284;-67
2023/11/16 02:44:33;;;;;;;2.65;1.95;;;;;;;2.78;100.00;97970.38;1225289;75;2927058;-70
2023/11/16 02:47:07;;;;;;;2.15;1.60;;;;;;;2.69;100.00;97987.13;1224974;75;2918083;-66
2023/11/16 02:49:39;;;;;;;2.15;1.85;;;;;;;2.82;100.00;97975.75;1224078;75;2918318;-71
2023/11/16 02:52:12;;;;;;;2.10;1.35;;;;;;;2.92;100.00;97974.75;1224228;75;2935276;-66
2023/11/16 02:54:47;;;;;;;1.90;1.45;;;;;;;2.98;100.00;97963.06;1225023;75;2917619;-69
2023/11/16 02:57:20;;;;;;;1.45;1.15;;;;;;;2.93;100.00;97966.22;1224503;75;2922385;-65
2023/11/16 02:59:53;;;;;;;1.65;1.35;;;;;;;2.51;100.00;97960.44;1224690;75;2923799;-68
2023/11/16 03:02:25;;;;;;;7.50;5.20;;;;;;;2.84;100.00;97957.94;1225500;75;2915305;-69
2023/11/16 03:04:58;;;;;;;5.40;3.50;;;;;;;3.24;100.00;97959.81;1225589;75;2924776;-65
2023/11/16 03:07:31;;;;;;;4.25;2.70;;;;;;;3.59;100.00;97952.88;1225469;75;2922432;-68
2023/11/16 03:10:07;;;;;;;4.45;1.80;;;;;;;3.84;100.00;97955.00;1224901;75;2929272;-68
2023/11/16 03:12:41;;;;;;;2.70;1.50;;;;;;;3.89;100.00;97959.16;1225145;75;2920726;-67
2023/11/16 03:15:13;;;;;;;3.05;1.55;;;;;;;4.07;100.00;97951.38;1226172;75;2913528;-67
2023/11/16 03:17:46;;;;;;;2.05;1.55;;;;;;;4.15;100.00;97958.13;1225649;75;2918103;-67
2023/11/16 03:20:20;;;;;;;1.65;1.30;;;;;;;4.09;100.00;97956.34;1224557;75;2940672;-66
2023/11/16 03:22:53;;;;;;;2.90;1.65;;;;;;;3.83;100.00;97959.66;1225583;75;2924082;-69
2023/11/16 03:25:29;;;;;;;2.95;2.15;;;;;;;3.47;100.00;97946.19;1226215;75;2918742;-72
2023/11/16 03:28:03;;;;;;;2.65;1.60;;;;;;;3.71;100.00;97940.63;1225341;75;2922520;-65
2023/11/16 03:30:36;;;;;;;1.40;1.30;;;;;;;3.62;100.00;97939.25;1225755;75;2923054;-68
2023/11/16 03:33:12;;;;;;;1.55;1.10;;;;;;;3.59;100.00;97934.69;1224816;75;2919620;-68
2023/11/16 03:35:48;;;;;;;1.60;1.25;;;;;;;3.21;100.00;97947.91;1225534;75;2916792;-67
2023/11/16 03:38:21;;;;;;;2.10;1.20;;;;;;;3.02;100.00;97956.81;1225588;75;2915100;-66
2023/11/16 03:40:56;;;;;;;1.80;1.30;;;;;;;3.14;100.00;97961.56;1226346;75;2915912;-67
2023/11/16 03:43:29;;;;;;;4.00;2.10;;;;;;;3.04;100.00;97957.91;1225035;75;2916374;-68
2023/11/16 03:46:02;;;;;;;4.05;1.85;;;;;;;2.91;100.00;97957.00;1223960;75;2942998;-68
2023/11/16 03:48:34;;;;;;;4.20;2.90;;;;;;;3.09;100.00;97948.53;1225089;75;2924114;-70
2023/11/16 03:51:08;;;;;;;3.95;2.50;;;;;;;3.01;100.00;97961.44;1224284;75;2917190;-70
2023/11/16 03:53:41;;;;;;;3.40;2.65;;;;;;;3.10;100.00;97961.66;1225158;75;2921818;-69
2023/11/16 03:56:17;;;;;;;4.25;3.00;;;;;;;3.04;100.00;97974.13;1225015;75;2927939;-67
2023/11/16 03:58:49;;;;;;;5.25;3.80;;;;;;;2.71;100.00;97973.22;1224204;75;2922141;-67
2023/11/16 04:01:22;;;;;;;4.75;3.25;;;;;;;2.70;100.00;97969.00;1224878;75;2925223;-68
2023/11/16 04:03:55;;;;;;;4.85;3.30;;;;;;;2.96;100.00;97970.81;1224429;75;2924557;-68
2023/11/16 04:06:29;;;;;;;4.20;3.40;;;;;;;3.08;100.00;97974.84;1223299;75;2919444;-67
2023/11/16 04:09:02;;;;;;;4.80;3.15;;;;;;;2.93;100.00;97979.75;1224904;75;2916583;-69
2023/11/16 04:11:44;;;;;;;5.55;3.60;;;;;;;2.52;100.00;98001.75;1223715;75;2926526;-69
2023/11/16 04:14:18;;;;;;;6.15;4.05;;;;;;;2.52;100.00;98005.19;1224449;75;2919394;-67
2023/11/16 04:16:52;;;;;;;5.40;3.90;;;;;;;2.67;100.00;98005.75;1223565;75;2921876;-69
2023/11/16 04:19:25;;;;;;;6.95;4.80;;;;;;;2.45;100.00;98005.31;1224785;75;2921072;-67
2023/11/16 04:21:59;;;;;;;5.15;4.00;;;;;;;2.68;100.00;98004.56;1225261;75;2913566;-66
2023/11/16 04:24:31;;;;;;;4.30;3.35;;;;;;;2.55;100.00;98012.50;1223925;75;2923155;-68
2023/11/16 04:27:07;;;;;;;6.30;4.05;;;;;;;2.36;100.00;98024.03;1225032;75;2920717;-70
2023/11/16 04:29:40;;;;;;;5.10;3.90;;;;;;;2.63;100.00;98021.25;1225905;75;2920921;-69
2023/11/16 04:32:14;;;;;;;6.05;3.15;;;;;;;2.64;100.00;98019.31;1225123;75;2916999;-67
2023/11/16 04:34:46;;;;;;;4.35;3.40;;;;;;;2.56;100.00;98029.47;1225512;83;2917611;-68
2023/11/16 04:37:19;;;;;;;3.55;2.75;;;;;;;2.67;100.00;98024.66;1224651;75;2928272;-66
2023/11/16 04:39:52;;;;;;;3.20;2.20;;;;;;;2.74;100.00;98021.81;1224749;75;2918207;-68
2023/11/16 04:42:27;;;;;;;5.30;2.75;;;;;;;2.75;100.00;98019.88;1225585;75;2923664;-69
2023/11/16 04:45:03;;;;;;;2.20;1.70;;;;;;;2.77;100.00;98010.19;1224789;75;2917898;-69
2023/11/16 04:47:37;;;;;;;2.70;2.25;;;;;;;2.73;100.00;98009.47;1224449;75;2928113;-69
2023/11/16 04:50:13;;;;;;;2.20;1.75;;;;;;;2.71;100.00;98006.41;1224599;75;2917831;-69
2023/11/16 04:52:46;;;;;;;2.05;1.70;;;;;;;2.70;100.00;98015.72;1225217;75;2927538;-67
2023/11/16 04:55:20;;;;;;;2.55;2.00;;;;;;;2.50;100.00;98023.00;1223957;75;2926384;-65
2023/11/16 04:57:56;;;;;;;3.60;2.40;;;;;;;2.55;100.00;98009.81;1223616;75;2922568;-67
2023/11/16 05:00:28;;;;;;;2.10;1.55;;;;;;;2.56;100.00;98003.22;1224298;75;2926263;-71
2023/11/16 05:03:01;;;;;;;3.20;2.30;;;;;;;2.41;100.00;98012.00;1222694;75;2970132;-65
2023/11/16 05:05:35;;;;;;;3.20;2.40;;;;;;;2.55;100.00;98014.44;1224234;75;2921866;-68
2023/11/16 05:08:08;;;;;;;5.45;2.75;;;;;;;2.42;100.00;98019.66;1223705;75;2919860;-68
2023/11/16 05:10:42;;;;;;;4.05;2.85;;;;;;;2.26;100.00;98022.25;1223705;75;2919599;-68
2023/11/16 05:13:18;;;;;;;4.20;2.95;;;;;;;2.35;100.00;98019.78;1224091;75;2917785;-69
2023/11/16 05:15:50;;;;;;;3.75;2.55;;;;;;;2.38;100.00;98023.59;1223630;75;2924157;-69
2023/11/16 05:18:23;;;;;;;5.20;3.60;;;;;;;2.27;100.00;98024.53;1223831;75;2922327;-69
2023/11/16 05:20:56;;;;;;;5.60;3.90;;;;;;;2.27;100.00;98024.53;1223740;75;2922925;-70
2023/11/16 05:23:28;;;;;;;5.95;4.40;;;;;;;2.37;100.00;98019.38;1222744;75;2932469;-67
2023/11/16 05:26:02;;;;;;;4.95;4.05;;;;;;;2.41;100.00;98020.09;1223891;75;2930214;-68
2023/11/16 05:28:38;;;;;;;4.75;3.60;;;;;;;2.48;100.00;98019.97;1224351;75;2919811;-63
2023/11/16 05:31:11;;;;;;;6.00;4.50;;;;;;;2.16;100.00;98031.28;1223387;75;2925880;-67
2023/11/16 05:33:44;;;;;;;4.30;3.60;;;;;;;2.42;100.00;98029.72;1223746;75;2938800;-67
2023/11/16 05:36:17;;;;;;;4.80;3.65;;;;;;;2.42;100.00;98027.78;1223457;75;2924857;-68
2023/11/16 05:38:49;;;;;;;4.05;3.25;;;;;;;2.45;100.00;98029.66;1223527;75;2928105;-68
2023/11/16 05:41:22;;;;;;;3.60;3.00;;;;;;;2.46;100.00;98025.03;1224195;75;2930092;-66
2023/11/16 05:43:57;;;;;;;5.85;3.60;;;;;;;2.34;100.00;98024.44;1225101;75;2920886;-67
2023/11/16 05:46:33;;;;;;;4.15;2.95;;;;;;;2.39;100.00;98017.03;1223963;75;2930597;-70
2023/11/16 05:49:06;;;;;;;3.95;3.10;;;;;;;2.35;100.00;98019.78;1224600;75;2922105;-70
2023/11/16 05:51:39;;;;;;;4.75;3.70;;;;;;;2.38;100.00;98023.59;1223575;75;2923937;-67
2023/11/16 05:54:14;;;;;;;4.35;3.45;;;;;;;2.33;100.00;98025.63;1223874;75;2926525;-68
2023/11/16 05:56:48;;;;;;;4.20;3.10;;;;;;;2.31;100.00;98014.47;1224637;75;2927637;-69
2023/11/16 05:59:24;;;;;;;2.70;2.30;;;;;;;2.36;100.00;98013.22;1224362;75;2926106;-67
2023/11/16 06:01:56;;;;;;;3.25;2.45;;;;;;;2.39;100.00;98015.09;1224396;75;2916945;-67
2023/11/16 06:04:29;;;;;;;3.00;2.40;;;;;;;2.39;100.00;98011.63;1223690;75;2941518;-70
2023/11/16 06:07:02;;;;;;;3.75;2.10;;;;;;;2.41;100.00;98012.75;1224774;75;2926814;-72
2023/11/16 06:09:34;;;;;;;3.60;2.40;;;;;;;2.45;100.00;98012.69;1224728;75;2924391;-70
2023/11/16 06:12:10;;;;;;;2.70;1.95;;;;;;;2.47;100.00;98015.72;1221954;75;2935365;-66
2023/11/16 06:14:52;;;;;;;2.60;2.05;;;;;;;2.49;100.00;98024.19;1223766;75;2937978;-66
2023/11/16 06:17:24;;;;;;;2.20;1.50;;;;;;;2.56;100.00;98026.78;1224869;75;2922803;-69
2023/11/16 06:19:57;;;;;;;2.40;1.95;;;;;;;2.50;100.00;98029.19;1224941;75;2921102;-68
2023/11/16 06:22:30;;;;;;;2.35;1.95;;;;;;;2.54;100.00;98023.72;1224722;75;2922636;-65
2023/11/16 06:25:04;;;;;;;2.55;1.90;;;;;;;2.50;100.00;98025.72;1224238;75;2924139;-66
2023/11/16 06:27:37;;;;;;;3.10;2.20;;;;;;;2.69;100.00;98024.22;1224517;75;2921365;-68
2023/11/16 06:30:15;;;;;;;4.05;2.15;;;;;;;2.69;100.00;98022.28;1224486;75;2923459;-69
2023/11/16 06:32:48;;;;;;;3.10;2.00;;;;;;;2.85;100.00;98023.56;1224525;67;2932519;-68
2023/11/16 06:35:21;;;;;;;3.55;2.35;;;;;;;2.90;100.00;98017.69;1224454;75;2933149;-66
2023/11/16 06:37:54;;;;;;;3.90;3.00;;;;;;;2.97;100.00;98020.25;1223996;75;2918449;-66
2023/11/16 06:40:27;;;;;;;2.55;1.90;;;;;;;3.07;100.00;98019.28;1224553;75;2920582;-70
2023/11/16 06:43:00;;;;;;;3.80;2.90;;;;;;;2.94;100.00;98016.44;1224711;75;2924223;-66
2023/11/16 06:45:37;;;;;;;4.95;2.80;;;;;;;3.05;100.00;98023.56;1225374;75;2927101;-64
2023/11/16 06:48:10;;;;;;;2.75;1.90;;;;;;;3.23;100.00;98017.84;1224616;75;2924312;-71
2023/11/16 06:50:43;;;;;;;2.65;2.00;;;;;;;5.48;100.00;98030.56;1224712;75;2922937;-66
2023/11/16 06:53:16;;;;;;;3.50;2.10;;;;;;;8.17;82.50;98024.19;1224884;75;2921549;-69
2023/11/16 06:55:52;;;;;;;2.90;2.00;;;;;;;7.99;79.01;98030.38;1224632;75;2931155;-68
2023/11/16 06:58:25;;;;;;;3.05;2.00;;;;;;;9.32;75.08;98025.69;1224330;75;2923171;-68
2023/11/16 07:01:00;;;;;;;3.55;2.60;;;;;;;11.40;67.47;98021.94;1223199;75;2936588;-69
2023/11/16 07:03:33;;;;;;;4.75;2.90;;;;;;;12.65;61.22;98016.28;1224175;67;2922176;-67
2023/11/16 07:06:07;;;;;;;3.35;2.70;;;;;;;12.59;60.59;98016.25;1223924;75;2938859;-71
2023/11/16 07:08:42;;;;;;;3.45;2.65;;;;;;;14.11;55.79;98005.94;1224044;75;2922637;-68
2023/11/16 07:11:15;;;;;;;3.55;2.75;;;;;;;14.48;53.63;98003.91;1224547;75;2919243;-66
2023/11/16 07:13:47;;;;;;;2.60;1.90;;;;;;;16.75;49.17;97992.44;1225258;75;2933075;-67
2023/11/16 07:16:23;;;;;;;3.10;2.00;;;;;;;15.67;50.11;97982.88;1222922;75;2927572;-67
2023/11/16 07:18:55;;;;;;;2.55;1.85;;;;;;;14.52;51.90;97987.13;1215577;75;2920239;-67
2023/11/16 07:21:28;;;;;;;3.65;1.95;;;;;;;12.53;56.99;97990.69;1222508;75;2925636;-68
2023/11/16 07:24:02;;;;;;;2.45;1.60;;;;;;;11.33;60.67;97996.88;1223342;75;2927838;-68
2023/11/16 07:26:35;;;;;;;2.20;1.40;;;;;;;10.72;63.90;98000.00;1224843;75;2921534;-68
2023/11/16 07:29:08;;;;;;;1.90;1.30;;;;;;;10.60;64.32;98002.50;1223133;75;2922521;-70
2023/11/16 07:31:44;;;;;;;1.30;1.20;;;;;;;10.71;64.69;97998.50;1223893;75;2922484;-72
2023/11/16 07:34:18;;;;;;;1.20;1.00;;;;;;;9.59;67.85;98003.00;1224540;75;2921714;-70
2023/11/16 07:36:51;;;;;;;1.15;1.00;;;;;;;10.24;66.54;98001.50;1223509;75;2939734;-71
2023/11/16 07:39:25;;;;;;;1.75;1.10;;;;;;;10.90;65.38;98010.06;1223567;75;2928240;-71
2023/11/16 07:41:57;;;;;;;1.45;1.00;;;;;;;10.56;65.82;98004.69;1224120;75;2921161;-65
2023/11/16 07:44:30;;;;;;;2.30;1.20;;;;;;;11.11;64.35;98002.72;1224887;75;2923957;-66
2023/11/16 07:47:08;;;;;;;2.50;1.20;;;;;;;10.70;65.15;98002.44;1224822;75;2923814;-69
2023/11/16 07:49:42;;;;;;;2.10;0.90;;;;;;;10.17;66.67;97993.66;1223463;75;2927445;-68
2023/11/16 07:52:15;;;;;;;5.45;3.35;;;;;;;8.53;74.17;97999.00;1224486;75;2928240;-65
2023/11/16 07:54:47;;;;;;;4.80;2.90;;;;;;;9.77;71.05;98000.19;1224268;75;2922614;-67
2023/11/16 07:57:22;;;;;;;3.70;1.85;;;;;;;10.84;67.90;97997.00;1223866;75;2921682;-68
2023/11/16 07:59:59;;;;;;;2.35;1.75;;;;;;;11.56;64.93;98000.75;1224447;75;2923646;-69
2023/11/16 08:03:41;;;;;;;3.00;1.90;;;;;;;11.75;64.07;97995.81;1223086;75;2920204;-69
2023/11/16 08:05:26;;;;;;;3.25;1.80;;;;;;;12.56;61.67;98012.47;1223945;75;2919262;-69
2023/11/16 08:08:03;;;;;;;4.40;1.90;;;;;;;12.08;61.96;97999.09;1222248;75;2930721;-68
2023/11/16 08:10:35;;;;;;;2.45;1.60;;;;;;;11.70;62.61;98006.22;1224863;75;2919493;-63
2023/11/16 08:13:09;;;;;;;3.10;2.00;;;;;;;10.88;65.85;98005.81;1223628;75;2923898;-69
2023/11/16 08:15:42;;;;;;;3.00;2.25;;;;;;;10.92;65.98;98010.34;1223655;75;2918749;-71
2023/11/16 08:18:19;;;;;;;3.70;2.50;;;;;;;10.53;66.92;97991.91;1224548;75;2921447;-67
2023/11/16 08:20:52;;;;;;;3.65;2.25;;;;;;;10.68;67.51;97983.75;1222824;75;2934839;-68
2023/11/16 08:23:25;;;;;;;2.25;1.70;;;;;;;11.96;64.74;97977.47;1224440;75;2941681;-67
2023/11/16 08:26:01;;;;;;;2.80;1.85;;;;;;;11.21;64.32;97979.50;1224872;75;2915966;-69
2023/11/16 08:28:34;;;;;;;2.35;1.60;;;;;;;12.49;62.74;97979.91;1223542;75;2916758;-68
2023/11/16 08:31:07;;;;;;;1.75;1.30;;;;;;;13.43;59.42;97978.66;1223493;75;2922905;-65
2023/11/16 08:33:43;;;;;;;1.75;1.15;;;;;;;13.07;58.36;97979.31;1224041;75;2928516;-69
2023/11/16 08:36:18;;;;;;;2.75;1.55;;;;;;;12.31;58.35;97991.94;1224679;75;2917429;-68
2023/11/16 08:38:51;;;;;;;1.95;1.35;;;;;;;12.56;58.94;97990.50;1222911;75;2923771;-67
2023/11/16 08:41:23;;;;;;;2.35;1.35;;;;;;;10.75;60.33;97990.84;1224747;75;2918601;-68
2023/11/16 08:43:57;;;;;;;2.00;1.20;;;;;;;10.39;63.15;97995.34;1224703;75;2922329;-66
2023/11/16 08:46:32;;;;;;;4.20;2.40;;;;;;;10.85;62.50;98000.53;1224769;75;2920712;-70
2023/11/16 08:49:07;;;;;;;3.05;1.90;;;;;;;10.92;62.35;97996.63;1224222;75;2918684;-69
2023/11/16 08:51:40;;;;;;;2.25;1.35;;;;;;;12.33;60.39;97996.94;1225462;75;2923304;-68
2023/11/16 08:54:14;;;;;;;2.55;1.20;;;;;;;11.41;61.22;98003.50;1224047;75;2928736;-69
2023/11/16 08:56:47;;;;;;;2.15;1.30;;;;;;;12.09;60.40;97980.63;1224495;75;2929751;-72
2023/11/16 08:59:23;;;;;;;1.30;0.95;;;;;;;12.29;60.06;97988.91;1223791;75;2923198;-71
2023/11/16 09:01:56;;;;;;;1.85;1.10;;;;;;;12.11;60.48;97980.91;1224441;75;2954778;-67
2023/11/16 09:04:31;;;;;;;1.90;1.10;;;;;;;12.43;60.77;97970.09;1223957;75;2920617;-66
2023/11/16 09:07:04;;;;;;;1.10;0.90;;;;;;;11.76;60.66;97972.63;1155345;75;5628062;-69
2023/11/16 09:09:37;;;;;;;1.95;1.20;;;;;;;11.33;63.01;97972.19;1197028;75;5046097;-69
2023/11/16 09:12:12;;;;;;;6.35;4.35;;;;;;;11.06;66.05;97961.06;1223548;75;2924910;-66
2023/11/16 09:14:47;;;;;;;7.80;5.10;;;;;;;11.38;67.96;97944.91;1223747;75;2937925;-66
2023/11/16 09:17:20;;;;;;;5.20;3.55;;;;;;;12.04;64.73;97949.13;1223700;75;2924088;-70
2023/11/16 09:19:55;;;;;;;3.65;2.50;;;;;;;12.02;64.63;97932.38;1223925;75;2917169;-64
2023/11/16 09:22:28;;;;;;;3.35;2.45;;;;;;;12.67;62.42;97926.69;1224341;75;2920771;-70
2023/11/16 09:25:06;;;;;;;3.60;2.50;;;;;;;13.56;59.55;97922.50;1224049;75;2926168;-67
2023/11/16 09:27:50;;;;;;;3.65;2.50;;;;;;;14.35;57.86;97929.19;1221924;75;2921415;-70
2023/11/16 09:30:26;;;;;;;3.95;2.25;;;;;;;13.53;58.40;97915.25;1224790;75;2914712;-66
2023/11/16 09:33:00;;;;;;;5.15;2.30;;;;;;;14.14;57.88;97906.59;1224479;75;2922965;-69
2023/11/16 09:35:36;;;;;;;3.80;2.25;;;;;;;13.86;58.22;97898.19;1226000;75;2921145;-68
2023/11/16 09:38:11;;;;;;;3.50;2.00;;;;;;;14.17;57.37;97891.09;1220802;75;3021356;-68
2023/11/16 09:40:44;;;;;;;2.45;1.80;;;;;;;15.62;55.63;97884.28;1224838;75;2923833;-68
2023/11/16 09:43:25;;;;;;;1.75;1.20;;;;;;;15.81;54.61;97884.50;1224145;75;2916753;-68
2023/11/16 09:45:57;;;;;;;2.25;1.75;;;;;;;16.91;54.46;97883.03;1216775;75;3129986;-70
2023/11/16 09:48:32;;;;;;;2.75;1.60;;;;;;;16.00;53.03;97881.97;1215460;75;2937076;-70
2023/11/16 09:51:11;;;;;;;2.00;1.55;;;;;;;17.09;51.41;97880.91;1222489;68;2919193;-71
2023/11/16 09:53:46;;;;;;;4.00;1.90;;;;;;;16.66;51.46;97876.63;1224282;75;2920507;-67
2023/11/16 09:56:27;;;;;;;4.80;2.20;;;;;;;17.76;49.15;97866.44;1211832;75;3032266;-66
2023/11/16 09:59:13;;;;;;;6.80;2.15;;;;;;;17.56;48.85;97867.66;1222975;75;2926519;-68
2023/11/16 10:01:57;;;;;;;12.35;3.00;;;;;;;15.94;51.43;97861.88;1224383;75;2924403;-69
2023/11/16 10:04:33;;;;;;;2.55;1.90;;;;;;;14.88;53.44;97857.97;1224761;75;2922604;-68
2023/11/16 10:07:10;;;;;;;3.45;1.95;;;;;;;15.70;52.47;97854.91;1223890;75;2928150;-67
2023/11/16 10:09:46;;;;;;;4.70;1.80;;;;;;;16.27;52.63;97849.22;1223546;75;2927571;-67
2023/11/16 10:12:18;;;;;;;2.60;1.25;;;;;;;17.11;49.67;97845.16;1224675;75;2921192;-70
2023/11/16 10:14:53;;;;;;;3.25;1.70;;;;;;;16.45;50.99;97842.31;1224581;75;2923924;-69
2023/11/16 10:17:26;;;;;;;4.45;1.60;;;;;;;17.03;50.19;97840.19;1224416;75;2924052;-71
2023/11/16 10:19:59;;;;;;;5.50;2.20;;;;;;;16.69;50.35;97831.38;1222121;75;2921853;-68
2023/11/16 10:22:34;;;;;;;6.80;2.50;;;;;;;16.96;48.87;97820.66;1222700;75;2919208;-69
2023/11/16 10:25:10;;;;;;;5.35;2.10;;;;;;;16.46;49.34;97813.44;1224328;75;2922306;-69
2023/11/16 10:27:43;;;;;;;3.60;1.80;;;;;;;15.90;50.88;97820.00;1224746;75;2917863;-71
2023/11/16 10:30:16;;;;;;;6.45;2.40;;;;;;;17.37;46.75;97811.50;1224683;75;2916451;-70
2023/11/16 10:32:51;;;;;;;5.35;1.85;;;;;;;18.21;45.49;97804.25;1222868;75;2922263;-66
2023/11/16 10:35:25;;;;;;;6.90;1.55;;;;;;;17.79;44.78;97789.88;1223890;75;2917677;-71
2023/11/16 10:38:01;;;;;;;5.25;1.40;;;;;;;19.69;42.52;97779.91;1220115;75;3115800;-69
2023/11/16 10:40:35;;;;;;;3.85;1.30;;;;;;;20.01;40.68;97773.44;1223873;75;2930054;-72
2023/11/16 10:43:08;;;;;;;1.65;1.05;;;;;;;20.30;41.28;97757.69;1224082;75;2923605;-68
2023/11/16 10:45:44;;;;;;;1.15;0.70;;;;;;;20.34;40.74;97744.16;1222559;75;2925725;-70
2023/11/16 10:48:18;;;;;;;1.10;0.65;;;;;;;19.62;41.23;97746.44;1222767;75;2923602;-71
2023/11/16 10:50:51;;;;;;;2.05;1.00;;;;;;;19.79;40.30;97738.53;1223178;75;2936291;-66
2023/11/16 10:53:27;;;;;;;1.15;0.80;;;;;;;18.04;41.69;97733.19;1224279;75;2922399;-70
2023/11/16 10:56:01;;;;;;;1.20;0.70;;;;;;;18.10;42.25;97727.56;1223169;75;2952937;-72
2023/11/16 10:58:34;;;;;;;1.85;0.90;;;;;;;17.97;42.57;97719.94;1224122;75;2917743;-69
2023/11/16 11:01:10;;;;;;;2.05;0.90;;;;;;;16.92;44.41;97720.63;1224307;75;2928106;-68
2023/11/16 11:03:44;;;;;;;1.35;0.80;;;;;;;17.65;44.23;97703.97;1223874;75;2928007;-70
2023/11/16 11:06:21;;;;;;;0.80;0.55;;;;;;;17.79;43.43;97702.00;1224402;75;2919710;-68
2023/11/16 11:08:57;;;;;;;3.85;0.60;;;;;;;18.01;42.84;97700.25;1222996;75;2920352;-69
2023/11/16 11:11:35;;;;;;;6.30;0.90;;;;;;;16.78;45.27;97700.34;1223064;75;2929315;-71
2023/11/16 11:14:10;;;;;;;1.30;0.70;;;;;;;17.15;44.67;97693.47;1224252;75;2918725;-71
2023/11/16 11:16:43;;;;;;;1.30;0.85;;;;;;;15.95;45.73;97689.47;1224034;75;2916754;-67
2023/11/16 11:19:26;;;;;;;1.00;0.75;;;;;;;16.33;45.87;97684.16;1224478;75;2920435;-74
2023/11/16 11:22:09;;;;;;;1.30;0.60;;;;;;;17.14;44.31;97687.19;1223894;83;2922769;-72
2023/11/16 11:24:50;;;;;;;3.25;1.10;;;;;;;16.73;46.54;97685.31;1224125;75;2920983;-67
2023/11/16 11:27:25;;;;;;;1.50;1.05;;;;;;;16.18;46.74;97679.00;1224386;75;2918761;-66
2023/11/16 11:29:58;;;;;;;1.80;0.90;;;;;;;16.61;47.06;97665.31;1223016;75;2920200;-70
2023/11/16 11:32:39;;;;;;;1.90;0.80;;;;;;;16.36;46.86;97669.34;1223569;75;2924981;-68
2023/11/16 11:35:13;;;;;;;1.50;0.90;;;;;;;15.20;49.29;97673.72;1223312;75;2939239;-68
2023/11/16 11:37:46;;;;;;;1.35;0.80;;;;;;;15.61;48.10;97664.00;1221726;75;2921169;-72
2023/11/16 11:40:27;;;;;;;2.20;0.70;;;;;;;15.95;48.01;97667.38;1223384;75;2922600;-69
2023/11/16 11:43:00;;;;;;;1.40;0.90;;;;;;;15.67;48.86;97667.50;1223789;75;2927061;-70
2023/11/16 11:45:35;;;;;;;2.35;0.85;;;;;;;15.46;48.62;97658.81;1224815;75;2921052;-66
2023/11/16 11:48:08;;;;;;;2.65;1.30;;;;;;;14.84;49.44;97648.78;1224583;75;2929021;-68
2023/11/16 11:50:42;;;;;;;1.75;1.00;;;;;;;14.54;50.47;97639.56;1222288;75;2928125;-66